Time;durP1;ratioP1;P1;durP2;ratioP2;P2;SDS_P1;SDS_P2;PMS_P1;PMS_P2;Temp;Humidity;BMP_temperature;BMP_pressure;BME280_temperature;BME280_humidity;BME280_pressure;Samples;Min_cycle;Max_cycle;Signal;HPM_P1;HPM_P2
2023/07/27 00:02:26;;;;;;;2.60;2.30;;;;;;;;;;5015447;28;20217;-72
2023/07/27 00:05:30;;;;;;;3.43;2.23;;;;;;;;;;5016757;28;20185;-72
2023/07/27 00:08:34;;;;;;;3.43;2.43;;;;;;;;;;5016458;28;20178;-72
2023/07/27 00:11:38;;;;;;;2.60;2.13;;;;;;;;;;5004186;28;20216;-72
2023/07/27 00:14:43;;;;;;;6.43;2.53;;;;;;;;;;5015492;28;20209;-73
2023/07/27 00:17:47;;;;;;;2.87;2.30;;;;;;;;;;5015442;28;20640;-72
2023/07/27 00:20:51;;;;;;;2.60;2.13;;;;;;;;;;5015548;28;20217;-73
2023/07/27 00:23:55;;;;;;;4.70;2.23;;;;;;;;;;5016205;28;20182;-73
2023/07/27 00:26:59;;;;;;;3.13;2.03;;;;;;;;;;5015604;28;20177;-72
2023/07/27 00:30:04;;;;;;;3.70;2.40;;;;;;;;;;5016383;28;20177;-74
2023/07/27 00:33:09;;;;;;;2.30;2.00;;;;;;;;;;5016100;28;20177;-72
2023/07/27 00:36:13;;;;;;;2.60;1.97;;;;;;;;;;5016110;28;20209;-72
2023/07/27 00:39:17;;;;;;;3.60;2.30;;;;;;;;;;5014799;28;20545;-72
2023/07/27 00:42:21;;;;;;;2.60;2.20;;;;;;;;;;5015731;28;20212;-72
2023/07/27 00:45:27;;;;;;;4.03;2.13;;;;;;;;;;5014918;28;20193;-73
2023/07/27 00:48:32;;;;;;;3.63;2.33;;;;;;;;;;5015745;28;20644;-72
2023/07/27 00:51:40;;;;;;;6.33;2.10;;;;;;;;;;5015435;28;20561;-72
2023/07/27 00:54:44;;;;;;;3.40;2.00;;;;;;;;;;5014426;28;20213;-74
2023/07/27 00:57:48;;;;;;;3.87;2.17;;;;;;;;;;5015492;28;20177;-72
2023/07/27 01:00:52;;;;;;;4.67;2.27;;;;;;;;;;5015371;28;20217;-72
2023/07/27 01:03:56;;;;;;;3.43;2.50;;;;;;;;;;5014546;28;20223;-74
2023/07/27 01:07:00;;;;;;;3.30;2.13;;;;;;;;;;5014914;28;20197;-72
2023/07/27 01:10:05;;;;;;;2.70;2.20;;;;;;;;;;5003015;28;20205;-72
2023/07/27 01:13:29;;;;;;;3.63;2.10;;;;;;;;;;5014558;28;20173;-72
2023/07/27 01:17:21;;;;;;;3.20;2.13;;;;;;;;;;5003202;28;20174;-74
2023/07/27 01:20:34;;;;;;;2.40;1.93;;;;;;;;;;5002972;28;20177;-73
2023/07/27 01:23:47;;;;;;;5.47;2.30;;;;;;;;;;5015283;28;20190;-74
2023/07/27 01:27:30;;;;;;;5.97;2.27;;;;;;;;;;5002956;28;20186;-74
2023/07/27 01:30:55;;;;;;;3.67;2.33;;;;;;;;;;5015001;28;20585;-74
2023/07/27 01:34:06;;;;;;;3.47;1.97;;;;;;;;;;5014884;28;20186;-74
2023/07/27 01:37:14;;;;;;;3.17;2.20;;;;;;;;;;5013915;28;20197;-74
2023/07/27 01:40:20;;;;;;;2.50;2.23;;;;;;;;;;5014462;28;20539;-74
2023/07/27 01:43:26;;;;;;;3.50;2.00;;;;;;;;;;5002863;28;20632;-74
2023/07/27 01:46:31;;;;;;;4.77;2.00;;;;;;;;;;5014055;28;20178;-74
2023/07/27 01:49:37;;;;;;;4.10;2.13;;;;;;;;;;5014521;28;20182;-74
2023/07/27 01:52:44;;;;;;;2.20;2.00;;;;;;;;;;5002447;28;20185;-75
2023/07/27 01:55:49;;;;;;;2.63;2.03;;;;;;;;;;4991329;28;20217;-74
2023/07/27 01:58:54;;;;;;;2.27;2.07;;;;;;;;;;4991169;28;20181;-74
2023/07/27 02:02:00;;;;;;;4.70;1.97;;;;;;;;;;5013479;28;20212;-74
2023/07/27 02:05:05;;;;;;;3.13;2.20;;;;;;;;;;5013520;28;20181;-74
2023/07/27 02:08:09;;;;;;;2.80;2.10;;;;;;;;;;5013197;28;20186;-72
2023/07/27 02:11:16;;;;;;;3.33;1.90;;;;;;;;;;5013323;28;20217;-74
2023/07/27 02:14:40;;;;;;;2.30;1.93;;;;;;;;;;5013307;28;20182;-74
2023/07/27 02:17:48;;;;;;;4.27;2.50;;;;;;;;;;5014115;28;20640;-74
2023/07/27 02:20:54;;;;;;;2.90;1.80;;;;;;;;;;5001968;28;20221;-74
2023/07/27 02:23:59;;;;;;;2.40;2.10;;;;;;;;;;5012755;28;20181;-74
2023/07/27 02:27:04;;;;;;;4.57;1.90;;;;;;;;;;5013181;28;20178;-74
2023/07/27 02:30:09;;;;;;;5.27;2.00;;;;;;;;;;5014048;28;20551;-74
2023/07/27 02:33:13;;;;;;;2.90;1.90;;;;;;;;;;5013026;28;20181;-74
2023/07/27 02:36:17;;;;;;;4.60;2.40;;;;;;;;;;5012859;28;20213;-74
2023/07/27 02:39:21;;;;;;;2.20;2.00;;;;;;;;;;5012994;28;20174;-74
2023/07/27 02:42:26;;;;;;;3.10;2.30;;;;;;;;;;5012615;28;20213;-74
2023/07/27 02:45:32;;;;;;;2.00;1.77;;;;;;;;;;5012957;28;20628;-74
2023/07/27 02:48:38;;;;;;;6.03;2.10;;;;;;;;;;5013542;28;20205;-74
2023/07/27 02:51:44;;;;;;;3.33;2.10;;;;;;;;;;5012874;28;20225;-72
2023/07/27 02:54:47;;;;;;;4.27;2.10;;;;;;;;;;5012690;28;20197;-74
2023/07/27 02:57:55;;;;;;;3.37;2.10;;;;;;;;;;5012557;28;20181;-74
2023/07/27 03:01:02;;;;;;;3.70;2.13;;;;;;;;;;5012678;28;20213;-73
2023/07/27 03:04:06;;;;;;;2.50;2.10;;;;;;;;;;5001180;28;20197;-74
2023/07/27 03:07:11;;;;;;;5.10;2.43;;;;;;;;;;5012678;28;20193;-74
2023/07/27 03:10:16;;;;;;;7.20;2.27;;;;;;;;;;5012787;28;20181;-74
2023/07/27 03:13:20;;;;;;;3.20;1.63;;;;;;;;;;5012363;28;20181;-74
2023/07/27 03:16:24;;;;;;;3.67;2.50;;;;;;;;;;5012527;28;20561;-74
2023/07/27 03:19:29;;;;;;;2.33;2.07;;;;;;;;;;5012312;28;20182;-74
2023/07/27 03:22:33;;;;;;;3.60;2.30;;;;;;;;;;5001190;28;20217;-74
2023/07/27 03:25:37;;;;;;;2.97;2.10;;;;;;;;;;5012574;28;20181;-74
2023/07/27 03:28:42;;;;;;;3.60;2.47;;;;;;;;;;5013027;28;20186;-74
2023/07/27 03:31:46;;;;;;;2.20;1.97;;;;;;;;;;5013095;28;20225;-72
2023/07/27 03:34:50;;;;;;;3.07;2.10;;;;;;;;;;5012986;28;20522;-74
2023/07/27 03:37:54;;;;;;;2.13;1.83;;;;;;;;;;5016322;28;20177;-74
2023/07/27 03:40:58;;;;;;;3.00;1.70;;;;;;;;;;5004828;28;20216;-74
2023/07/27 03:44:02;;;;;;;4.87;2.13;;;;;;;;;;5007288;28;20201;-74
2023/07/27 03:47:06;;;;;;;4.67;2.20;;;;;;;;;;4996190;28;20542;-74
2023/07/27 03:50:11;;;;;;;3.97;2.27;;;;;;;;;;4996890;28;20201;-74
2023/07/27 03:53:15;;;;;;;2.63;1.80;;;;;;;;;;4985099;28;20198;-74
2023/07/27 03:56:19;;;;;;;2.73;2.00;;;;;;;;;;4996175;28;20669;-74
2023/07/27 03:59:23;;;;;;;2.67;1.90;;;;;;;;;;4985120;28;20186;-74
2023/07/27 04:02:28;;;;;;;3.40;2.10;;;;;;;;;;4996047;28;20222;-74
2023/07/27 04:05:32;;;;;;;4.60;2.20;;;;;;;;;;4996113;28;20687;-74
2023/07/27 04:08:36;;;;;;;3.20;1.73;;;;;;;;;;4996078;28;20197;-74
2023/07/27 04:11:40;;;;;;;3.30;1.80;;;;;;;;;;4995658;28;20217;-74
2023/07/27 04:14:44;;;;;;;2.43;1.83;;;;;;;;;;4995992;28;20186;-74
2023/07/27 04:17:48;;;;;;;2.50;2.00;;;;;;;;;;4995938;28;20175;-74
2023/07/27 04:20:52;;;;;;;2.17;1.90;;;;;;;;;;4996611;28;20209;-74
2023/07/27 04:23:56;;;;;;;2.80;2.30;;;;;;;;;;4995687;28;20174;-74
2023/07/27 04:27:00;;;;;;;2.30;2.00;;;;;;;;;;4995758;28;20178;-74
2023/07/27 04:30:05;;;;;;;2.40;2.00;;;;;;;;;;4984397;28;20201;-74
2023/07/27 04:33:09;;;;;;;1.90;1.80;;;;;;;;;;5002267;23;20233;-71
2023/07/27 04:36:13;;;;;;;2.63;2.40;;;;;;;;;;4995548;28;20210;-72
2023/07/27 04:39:17;;;;;;;3.30;2.33;;;;;;;;;;5014780;28;20201;-71
2023/07/27 04:42:21;;;;;;;2.67;2.23;;;;;;;;;;5014599;28;20209;-71
2023/07/27 04:45:25;;;;;;;2.53;2.07;;;;;;;;;;5014351;28;20194;-72
2023/07/27 04:48:29;;;;;;;4.40;2.27;;;;;;;;;;5013361;28;20201;-71
2023/07/27 04:51:34;;;;;;;4.47;1.83;;;;;;;;;;5000286;28;20221;-71
2023/07/27 04:54:38;;;;;;;2.40;1.73;;;;;;;;;;5007735;28;20209;-72
2023/07/27 04:57:42;;;;;;;3.17;1.80;;;;;;;;;;4993830;28;20205;-71
2023/07/27 05:00:55;;;;;;;2.50;2.00;;;;;;;;;;5015131;28;20676;-72
2023/07/27 05:04:00;;;;;;;2.77;1.87;;;;;;;;;;5015112;28;20209;-71
2023/07/27 05:07:04;;;;;;;4.43;2.37;;;;;;;;;;5015672;28;20177;-71
2023/07/27 05:10:08;;;;;;;6.73;2.33;;;;;;;;;;5014697;28;20177;-72
2023/07/27 05:13:12;;;;;;;5.00;2.00;;;;;;;;;;5014997;28;20189;-72
2023/07/27 05:16:16;;;;;;;3.43;2.13;;;;;;;;;;5002970;28;20668;-71
2023/07/27 05:19:21;;;;;;;2.00;1.80;;;;;;;;;;5014253;28;20185;-71
2023/07/27 05:22:25;;;;;;;2.87;2.23;;;;;;;;;;5015267;28;20213;-71
2023/07/27 05:25:29;;;;;;;4.87;2.10;;;;;;;;;;5015093;28;20181;-72
2023/07/27 05:28:33;;;;;;;3.30;2.17;;;;;;;;;;5008993;28;20202;-71
2023/07/27 05:31:37;;;;;;;5.57;2.13;;;;;;;;;;4994618;28;20689;-70
2023/07/27 05:34:41;;;;;;;3.73;2.20;;;;;;;;;;4982980;28;20175;-71
2023/07/27 05:37:46;;;;;;;2.27;1.60;;;;;;;;;;4995019;28;20542;-71
2023/07/27 05:40:50;;;;;;;2.13;1.93;;;;;;;;;;4994227;28;20218;-71
2023/07/27 05:43:55;;;;;;;2.00;1.80;;;;;;;;;;5006959;28;20557;-71
2023/07/27 05:47:02;;;;;;;4.53;1.93;;;;;;;;;;5013528;28;20272;-72
2023/07/27 05:50:08;;;;;;;3.50;2.00;;;;;;;;;;5014051;28;20194;-72
2023/07/27 05:53:12;;;;;;;2.70;2.03;;;;;;;;;;5014354;28;20185;-72
2023/07/27 05:56:16;;;;;;;2.53;1.73;;;;;;;;;;5013270;28;20225;-71
2023/07/27 05:59:20;;;;;;;3.30;1.47;;;;;;;;;;5012835;28;20205;-71
2023/07/27 06:02:25;;;;;;;3.63;1.90;;;;;;;;;;5013117;28;20573;-71
2023/07/27 06:05:29;;;;;;;2.10;1.70;;;;;;;;;;5013952;28;20182;-72
2023/07/27 06:08:33;;;;;;;2.87;1.60;;;;;;;;;;5014239;28;20648;-71
2023/07/27 06:11:38;;;;;;;2.67;1.60;;;;;;;;;;5013817;28;20561;-71
2023/07/27 06:14:43;;;;;;;2.37;1.70;;;;;;;;;;5013778;28;20174;-72
2023/07/27 06:17:47;;;;;;;1.83;1.70;;;;;;;;;;5005147;28;20222;-71
2023/07/27 06:20:52;;;;;;;5.47;1.73;;;;;;;;;;4993100;28;20229;-71
2023/07/27 06:23:56;;;;;;;2.53;1.53;;;;;;;;;;4994044;28;20198;-71
2023/07/27 06:27:00;;;;;;;1.90;1.40;;;;;;;;;;5002203;28;20201;-71
2023/07/27 06:30:05;;;;;;;2.03;1.30;;;;;;;;;;5011145;28;20193;-71
2023/07/27 06:33:09;;;;;;;2.63;1.70;;;;;;;;;;5012734;28;20205;-72
2023/07/27 06:36:14;;;;;;;1.97;1.40;;;;;;;;;;5013446;28;20209;-71
2023/07/27 06:39:17;;;;;;;2.10;1.50;;;;;;;;;;5013765;28;20174;-71
2023/07/27 06:42:22;;;;;;;2.97;1.33;;;;;;;;;;5001623;28;20209;-72
2023/07/27 06:45:26;;;;;;;1.73;1.50;;;;;;;;;;5001368;28;20182;-72
2023/07/27 06:48:30;;;;;;;1.63;1.30;;;;;;;;;;5013355;28;20177;-72
2023/07/27 06:51:35;;;;;;;3.60;1.53;;;;;;;;;;5013217;28;20217;-71
2023/07/27 06:54:39;;;;;;;1.50;1.40;;;;;;;;;;5013311;28;20185;-72
2023/07/27 06:57:43;;;;;;;1.63;1.40;;;;;;;;;;5013499;28;20225;-72
2023/07/27 07:00:48;;;;;;;2.63;1.40;;;;;;;;;;5013143;28;20225;-72
2023/07/27 07:03:52;;;;;;;1.63;1.23;;;;;;;;;;5012674;28;20178;-72
2023/07/27 07:06:57;;;;;;;2.30;1.70;;;;;;;;;;5001140;28;20177;-71
2023/07/27 07:10:02;;;;;;;1.70;1.30;;;;;;;;;;5010056;28;20205;-71
2023/07/27 07:13:06;;;;;;;1.80;1.70;;;;;;;;;;5016492;28;20545;-71
2023/07/27 07:16:10;;;;;;;4.90;1.73;;;;;;;;;;5011514;28;20233;-71
2023/07/27 07:19:14;;;;;;;6.47;1.60;;;;;;;;;;5017012;28;20193;-71
2023/07/27 07:22:18;;;;;;;4.93;1.60;;;;;;;;;;5009880;28;20225;-71
2023/07/27 07:25:22;;;;;;;2.97;1.47;;;;;;;;;;5004166;28;20193;-71
2023/07/27 07:28:27;;;;;;;1.70;1.20;;;;;;;;;;4997141;28;20198;-70
2023/07/27 07:31:31;;;;;;;2.30;1.53;;;;;;;;;;4996280;28;20221;-71
2023/07/27 07:34:35;;;;;;;4.33;1.60;;;;;;;;;;4996560;28;20174;-71
2023/07/27 07:37:39;;;;;;;2.57;1.40;;;;;;;;;;4997289;28;20210;-71
2023/07/27 07:40:46;;;;;;;2.20;1.53;;;;;;;;;;4998000;28;20221;-72
2023/07/27 07:43:50;;;;;;;1.40;1.30;;;;;;;;;;5015820;28;20791;-72
2023/07/27 07:46:54;;;;;;;2.00;1.40;;;;;;;;;;5016519;28;20185;-72
2023/07/27 07:49:59;;;;;;;3.17;1.47;;;;;;;;;;5016556;28;20177;-70
2023/07/27 07:53:05;;;;;;;1.43;1.23;;;;;;;;;;5016389;28;20193;-72
2023/07/27 07:56:14;;;;;;;3.00;1.70;;;;;;;;;;5016501;28;20185;-71
2023/07/27 07:59:19;;;;;;;2.70;1.80;;;;;;;;;;5016117;28;20205;-71
2023/07/27 08:02:23;;;;;;;1.77;1.40;;;;;;;;;;5015451;28;20213;-73
2023/07/27 08:05:30;;;;;;;1.97;1.50;;;;;;;;;;5015726;28;20185;-73
2023/07/27 08:08:37;;;;;;;1.97;1.37;;;;;;;;;;5008004;28;20672;-73
2023/07/27 08:11:41;;;;;;;1.87;1.40;;;;;;;;;;5016005;28;20572;-73
2023/07/27 08:14:45;;;;;;;4.20;1.53;;;;;;;;;;4995675;28;20186;-73
2023/07/27 08:17:52;;;;;;;7.90;2.33;;;;;;;;;;4995654;28;20210;-73
2023/07/27 08:21:04;;;;;;;9.73;2.30;;;;;;;;;;4995623;28;20209;-73
2023/07/27 08:24:07;;;;;;;6.93;1.87;;;;;;;;;;4996334;28;20174;-74
2023/07/27 08:27:11;;;;;;;4.00;1.50;;;;;;;;;;4995449;28;20174;-74
2023/07/27 08:30:16;;;;;;;2.10;1.30;;;;;;;;;;4995957;28;20201;-74
2023/07/27 08:33:20;;;;;;;2.00;1.50;;;;;;;;;;4996070;28;20202;-74
2023/07/27 08:36:24;;;;;;;2.63;1.50;;;;;;;;;;4984360;28;20182;-74
2023/07/27 08:39:28;;;;;;;5.53;1.67;;;;;;;;;;4995996;28;20202;-73
2023/07/27 08:42:32;;;;;;;1.57;1.20;;;;;;;;;;4995868;28;20218;-73
2023/07/27 08:45:37;;;;;;;1.53;1.43;;;;;;;;;;4996266;28;20179;-74
2023/07/27 08:48:41;;;;;;;2.50;1.90;;;;;;;;;;4995076;28;20174;-73
2023/07/27 08:51:46;;;;;;;1.90;1.50;;;;;;;;;;4994987;28;20226;-73
2023/07/27 08:54:50;;;;;;;1.97;1.60;;;;;;;;;;4995159;28;20178;-73
2023/07/27 08:57:54;;;;;;;2.63;1.70;;;;;;;;;;4994959;28;20208;-73
2023/07/27 09:00:58;;;;;;;1.93;1.37;;;;;;;;;;4994774;28;20221;-73
2023/07/27 09:04:02;;;;;;;2.10;1.43;;;;;;;;;;4995631;28;20186;-73
2023/07/27 09:07:06;;;;;;;2.27;1.63;;;;;;;;;;4995524;28;20179;-74
2023/07/27 09:10:11;;;;;;;2.60;1.97;;;;;;;;;;4995482;28;20568;-73
2023/07/27 09:13:15;;;;;;;2.43;1.70;;;;;;;;;;4995510;28;20180;-74
2023/07/27 09:16:23;;;;;;;2.10;1.47;;;;;;;;;;4994571;28;20640;-74
2023/07/27 09:19:35;;;;;;;2.53;1.80;;;;;;;;;;4995303;28;20645;-73
2023/07/27 09:22:41;;;;;;;3.40;1.53;;;;;;;;;;4983173;28;20215;-74
2023/07/27 09:25:55;;;;;;;6.80;1.50;;;;;;;;;;5002464;28;20203;-74
2023/07/27 09:29:03;;;;;;;2.17;1.80;;;;;;;;;;5000805;28;20194;-74
2023/07/27 09:32:09;;;;;;;1.60;1.30;;;;;;;;;;5007380;28;20232;-74
2023/07/27 09:35:14;;;;;;;1.40;1.30;;;;;;;;;;5013605;28;20179;-72
2023/07/27 09:38:28;;;;;;;2.88;1.50;;;;;;;;;;5011373;28;20216;-73
2023/07/27 09:41:32;;;;;;;2.33;1.60;;;;;;;;;;5014364;28;20230;-74
2023/07/27 09:44:48;;;;;;;2.28;1.50;;;;;;;;;;5014359;28;20183;-74
2023/07/27 09:47:53;;;;;;;3.38;1.52;;;;;;;;;;4989077;28;20192;-72
2023/07/27 09:50:59;;;;;;;2.30;1.52;;;;;;;;;;4994794;28;20219;-72
2023/07/27 09:54:04;;;;;;;3.58;1.50;;;;;;;;;;4993776;28;20180;-72
2023/07/27 09:57:08;;;;;;;1.65;1.40;;;;;;;;;;4993891;28;20219;-72
2023/07/27 10:00:13;;;;;;;5.78;1.50;;;;;;;;;;4994368;28;20642;-72
2023/07/27 10:03:16;;;;;;;2.63;1.88;;;;;;;;;;4994263;28;20184;-72
2023/07/27 10:06:21;;;;;;;2.60;1.60;;;;;;;;;;4994308;28;20182;-72
2023/07/27 10:09:25;;;;;;;3.80;1.73;;;;;;;;;;4982584;28;20175;-71
2023/07/27 10:12:29;;;;;;;1.65;1.48;;;;;;;;;;4994206;28;20218;-71
2023/07/27 10:15:41;;;;;;;2.72;1.80;;;;;;;;;;4994295;28;20175;-72
2023/07/27 10:18:46;;;;;;;3.00;1.50;;;;;;;;;;4993682;28;20210;-72
2023/07/27 10:21:51;;;;;;;2.13;1.65;;;;;;;;;;4993292;28;20219;-72
2023/07/27 10:25:00;;;;;;;3.47;1.95;;;;;;;;;;4993496;28;20188;-72
2023/07/27 10:28:05;;;;;;;2.08;1.50;;;;;;;;;;4994365;28;20652;-72
2023/07/27 10:31:27;;;;;;;4.03;1.85;;;;;;;;;;4994000;28;20216;-72
2023/07/27 10:34:34;;;;;;;2.03;1.60;;;;;;;;;;4994199;28;20645;-72
2023/07/27 10:37:55;;;;;;;3.40;1.75;;;;;;;;;;4994040;28;20214;-71
2023/07/27 10:41:24;;;;;;;2.10;1.60;;;;;;;;;;5012485;23;20235;-72
2023/07/27 10:44:38;;;;;;;2.40;1.55;;;;;;;;;;5013334;28;20193;-72
2023/07/27 10:47:48;;;;;;;2.83;1.52;;;;;;;;;;5001304;28;20177;-72
2023/07/27 10:50:52;;;;;;;2.22;1.80;;;;;;;;;;5018060;28;20211;-72
2023/07/27 10:53:56;;;;;;;3.17;1.42;;;;;;;;;;5032999;28;20179;-72
2023/07/27 10:57:02;;;;;;;8.50;4.43;;;;;;;;;;5033099;28;20647;-73
2023/07/27 11:00:08;;;;;;;5.15;2.58;;;;;;;;;;5020726;28;20195;-72
2023/07/27 11:03:12;;;;;;;7.03;3.47;;;;;;;;;;5033180;28;20177;-72
2023/07/27 11:06:17;;;;;;;4.47;3.03;;;;;;;;;;5021023;28;20177;-72
2023/07/27 11:09:22;;;;;;;4.63;3.10;;;;;;;;;;5032907;28;20635;-72
2023/07/27 11:12:26;;;;;;;5.77;1.73;;;;;;;;;;5020684;28;20208;-73
2023/07/27 11:15:30;;;;;;;3.13;2.00;;;;;;;;;;5009551;28;20180;-72
2023/07/27 11:18:34;;;;;;;3.03;1.80;;;;;;;;;;5020666;28;20208;-72
2023/07/27 11:21:40;;;;;;;2.40;1.80;;;;;;;;;;5032699;28;20216;-72
2023/07/27 11:24:44;;;;;;;3.23;1.67;;;;;;;;;;5020915;28;20638;-73
2023/07/27 11:27:50;;;;;;;3.57;1.70;;;;;;;;;;5032982;28;20178;-72
2023/07/27 11:30:54;;;;;;;3.00;1.70;;;;;;;;;;5020804;28;20213;-72
2023/07/27 11:34:00;;;;;;;2.50;1.90;;;;;;;;;;5032785;28;20182;-73
2023/07/27 11:37:04;;;;;;;2.63;1.53;;;;;;;;;;5032658;28;20188;-72
2023/07/27 11:40:17;;;;;;;2.67;1.53;;;;;;;;;;5020710;28;20184;-72
2023/07/27 11:43:21;;;;;;;4.47;1.77;;;;;;;;;;5032867;28;20180;-72
2023/07/27 11:46:26;;;;;;;3.70;1.45;;;;;;;;;;5020438;28;20186;-72
2023/07/27 11:49:30;;;;;;;2.63;1.70;;;;;;;;;;5032632;28;20510;-72
2023/07/27 11:52:39;;;;;;;3.10;1.87;;;;;;;;;;5032509;28;20216;-72
2023/07/27 11:55:43;;;;;;;4.37;1.90;;;;;;;;;;5033001;28;20184;-72
2023/07/27 11:58:49;;;;;;;3.63;2.00;;;;;;;;;;5012940;28;20203;-72
2023/07/27 12:01:54;;;;;;;4.50;1.50;;;;;;;;;;5036343;28;20220;-72
2023/07/27 12:05:00;;;;;;;2.03;1.50;;;;;;;;;;5036360;28;20181;-72
2023/07/27 12:08:04;;;;;;;2.05;1.60;;;;;;;;;;5012657;28;20173;-72
2023/07/27 12:11:09;;;;;;;2.30;1.85;;;;;;;;;;5035799;28;20214;-71
2023/07/27 12:14:14;;;;;;;3.78;1.23;;;;;;;;;;5035818;28;20195;-71
2023/07/27 12:17:23;;;;;;;2.37;1.90;;;;;;;;;;5035864;28;20184;-72
2023/07/27 12:20:29;;;;;;;1.63;1.37;;;;;;;;;;5023813;28;20211;-72
2023/07/27 12:23:35;;;;;;;2.60;1.07;;;;;;;;;;5023737;28;20641;-72
2023/07/27 12:26:39;;;;;;;3.70;1.50;;;;;;;;;;5023573;28;20183;-72
2023/07/27 12:29:43;;;;;;;2.17;1.30;;;;;;;;;;5023758;28;20509;-72
2023/07/27 12:32:49;;;;;;;2.47;1.37;;;;;;;;;;5035845;28;20182;-71
2023/07/27 12:35:53;;;;;;;2.73;1.60;;;;;;;;;;5023277;28;20181;-72
2023/07/27 12:38:58;;;;;;;2.70;1.23;;;;;;;;;;5035389;28;20206;-72
2023/07/27 12:42:02;;;;;;;2.03;1.37;;;;;;;;;;5023091;28;20229;-71
2023/07/27 12:45:06;;;;;;;2.27;1.40;;;;;;;;;;5011858;28;20196;-71
2023/07/27 12:48:10;;;;;;;1.77;1.40;;;;;;;;;;5023080;28;20173;-71
2023/07/27 12:51:14;;;;;;;2.22;0.90;;;;;;;;;;5035149;28;20696;-72
2023/07/27 12:54:18;;;;;;;1.73;1.15;;;;;;;;;;5035113;28;20199;-71
2023/07/27 12:57:23;;;;;;;2.15;1.05;;;;;;;;;;5022977;28;20518;-72
2023/07/27 13:00:27;;;;;;;1.35;1.05;;;;;;;;;;5035343;28;20184;-72
2023/07/27 13:03:32;;;;;;;2.13;1.25;;;;;;;;;;5022761;28;20638;-71
2023/07/27 13:06:36;;;;;;;1.75;1.30;;;;;;;;;;5022499;28;20179;-72
2023/07/27 13:09:40;;;;;;;1.35;1.10;;;;;;;;;;5034886;28;20178;-72
2023/07/27 13:12:44;;;;;;;1.98;1.05;;;;;;;;;;5035107;28;20175;-71
2023/07/27 13:15:49;;;;;;;1.67;1.20;;;;;;;;;;5022520;28;20197;-72
2023/07/27 13:18:53;;;;;;;1.75;1.20;;;;;;;;;;5034566;28;20225;-72
2023/07/27 13:21:57;;;;;;;1.83;1.10;;;;;;;;;;5034611;28;20557;-71
2023/07/27 13:25:02;;;;;;;1.42;1.10;;;;;;;;;;5011099;28;20178;-72
2023/07/27 13:28:06;;;;;;;1.20;0.97;;;;;;;;;;5034771;28;20174;-72
2023/07/27 13:31:11;;;;;;;1.50;1.10;;;;;;;;;;5034386;28;20226;-72
2023/07/27 13:34:15;;;;;;;1.10;1.00;;;;;;;;;;5022469;28;20187;-72
2023/07/27 13:37:19;;;;;;;3.10;1.17;;;;;;;;;;5034577;28;20185;-72
2023/07/27 13:40:23;;;;;;;1.47;1.00;;;;;;;;;;5022189;28;20531;-72
2023/07/27 13:43:28;;;;;;;1.30;1.10;;;;;;;;;;5034253;28;20188;-72
2023/07/27 13:46:32;;;;;;;1.20;1.10;;;;;;;;;;5034065;28;20199;-72
2023/07/27 13:49:36;;;;;;;2.33;1.20;;;;;;;;;;5021863;28;20190;-72
2023/07/27 13:52:40;;;;;;;1.57;1.13;;;;;;;;;;5033913;28;20219;-72
2023/07/27 13:55:48;;;;;;;1.20;1.00;;;;;;;;;;5021773;28;20203;-72
2023/07/27 13:58:52;;;;;;;1.93;1.03;;;;;;;;;;5021768;28;20211;-72
2023/07/27 14:01:57;;;;;;;1.37;1.10;;;;;;;;;;5034033;28;20689;-71
2023/07/27 14:05:01;;;;;;;2.33;0.93;;;;;;;;;;5033753;28;20182;-71
2023/07/27 14:08:05;;;;;;;2.13;1.57;;;;;;;;;;5021723;28;20182;-72
2023/07/27 14:11:09;;;;;;;5.47;1.27;;;;;;;;;;5033606;28;20217;-71
2023/07/27 14:14:14;;;;;;;1.40;1.30;;;;;;;;;;5033635;28;20202;-72
2023/07/27 14:17:18;;;;;;;2.40;1.33;;;;;;;;;;5033543;28;20201;-71
2023/07/27 14:20:22;;;;;;;2.30;1.27;;;;;;;;;;5021031;28;20568;-71
2023/07/27 14:23:26;;;;;;;1.23;1.00;;;;;;;;;;5021615;28;20181;-72
2023/07/27 14:26:30;;;;;;;1.60;1.10;;;;;;;;;;5021329;28;20639;-72
2023/07/27 14:29:34;;;;;;;4.77;1.20;;;;;;;;;;5021627;28;20165;-71
2023/07/27 14:32:39;;;;;;;2.50;1.10;;;;;;;;;;5033249;28;20222;-71
2023/07/27 14:35:43;;;;;;;1.97;1.30;;;;;;;;;;5021191;28;20181;-71
2023/07/27 14:38:47;;;;;;;2.70;1.30;;;;;;;;;;5033172;28;20220;-71
2023/07/27 14:41:51;;;;;;;7.37;1.30;;;;;;;;;;5033129;28;20225;-71
2023/07/27 14:44:55;;;;;;;64.10;12.10;;;;;;;;;;5033178;28;20199;-71
2023/07/27 14:47:59;;;;;;;5.87;2.47;;;;;;;;;;5021075;28;20185;-71
2023/07/27 14:51:03;;;;;;;2.33;1.60;;;;;;;;;;5033397;28;20213;-71
2023/07/27 14:54:08;;;;;;;4.03;1.50;;;;;;;;;;5033160;28;20624;-72
2023/07/27 14:57:12;;;;;;;1.70;1.50;;;;;;;;;;5033670;28;20640;-72
2023/07/27 15:00:18;;;;;;;6.90;1.80;;;;;;;;;;5033614;28;20675;-71
2023/07/27 15:03:22;;;;;;;2.43;1.37;;;;;;;;;;5020906;28;20197;-71
2023/07/27 15:06:26;;;;;;;1.70;1.20;;;;;;;;;;5033185;28;20540;-71
2023/07/27 15:09:31;;;;;;;4.03;1.43;;;;;;;;;;5020779;28;20184;-71
2023/07/27 15:12:35;;;;;;;2.33;1.70;;;;;;;;;;5020669;28;20212;-71
2023/07/27 15:15:39;;;;;;;1.90;1.50;;;;;;;;;;5033136;28;20185;-72
2023/07/27 15:18:44;;;;;;;2.77;1.40;;;;;;;;;;5032595;28;20204;-71
2023/07/27 15:21:48;;;;;;;3.20;1.40;;;;;;;;;;5032619;28;20208;-71
2023/07/27 15:24:52;;;;;;;2.17;1.50;;;;;;;;;;5020420;28;20667;-71
2023/07/27 15:27:58;;;;;;;2.30;1.63;;;;;;;;;;5020601;28;20196;-71
2023/07/27 15:31:04;;;;;;;1.60;1.50;;;;;;;;;;5012295;28;20209;-71
2023/07/27 15:34:08;;;;;;;2.53;1.43;;;;;;;;;;5036498;28;20193;-71
2023/07/27 15:37:13;;;;;;;3.20;1.70;;;;;;;;;;5024396;28;20181;-71
2023/07/27 15:40:18;;;;;;;2.20;1.60;;;;;;;;;;5012921;28;20204;-71
2023/07/27 15:43:22;;;;;;;1.70;1.60;;;;;;;;;;5024346;28;20181;-71
2023/07/27 15:46:26;;;;;;;2.53;1.47;;;;;;;;;;5024145;28;20177;-72
2023/07/27 15:49:30;;;;;;;2.60;1.80;;;;;;;;;;5036158;28;20181;-71
2023/07/27 15:52:36;;;;;;;2.93;1.77;;;;;;;;;;5023919;28;20212;-71
2023/07/27 15:55:42;;;;;;;5.43;1.80;;;;;;;;;;5036155;28;20173;-71
2023/07/27 15:58:45;;;;;;;2.70;1.57;;;;;;;;;;5036144;28;20177;-72
2023/07/27 16:01:49;;;;;;;2.23;1.67;;;;;;;;;;5023736;28;20568;-72
2023/07/27 16:04:55;;;;;;;2.40;1.73;;;;;;;;;;5036187;28;20196;-71
2023/07/27 16:07:59;;;;;;;2.50;1.67;;;;;;;;;;5035864;28;20181;-71
2023/07/27 16:11:09;;;;;;;2.30;1.80;;;;;;;;;;5035731;28;20216;-71
2023/07/27 16:14:13;;;;;;;4.27;1.77;;;;;;;;;;5012397;28;20181;-71
2023/07/27 16:17:17;;;;;;;2.17;1.70;;;;;;;;;;5036024;28;20177;-71
2023/07/27 16:20:21;;;;;;;2.13;1.60;;;;;;;;;;5035787;28;20201;-71
2023/07/27 16:23:25;;;;;;;2.33;1.60;;;;;;;;;;5035602;28;20196;-71
2023/07/27 16:26:30;;;;;;;3.17;1.63;;;;;;;;;;5035539;28;20180;-71
2023/07/27 16:29:34;;;;;;;1.57;1.43;;;;;;;;;;5035473;28;20177;-71
2023/07/27 16:32:38;;;;;;;2.17;1.57;;;;;;;;;;5035598;28;20213;-71
2023/07/27 16:35:41;;;;;;;1.87;1.77;;;;;;;;;;5023140;28;20177;-71
2023/07/27 16:38:46;;;;;;;2.77;1.80;;;;;;;;;;5023081;28;20177;-71
2023/07/27 16:41:50;;;;;;;2.63;1.80;;;;;;;;;;5022241;28;20228;-71
2023/07/27 16:44:54;;;;;;;2.10;1.40;;;;;;;;;;5042264;23;20240;-73
2023/07/27 16:47:58;;;;;;;2.17;1.80;;;;;;;;;;5035499;28;20169;-73
2023/07/27 16:51:07;;;;;;;3.40;1.90;;;;;;;;;;5035020;28;20217;-73
2023/07/27 16:54:12;;;;;;;2.57;1.60;;;;;;;;;;5035234;28;20524;-72
2023/07/27 16:57:16;;;;;;;1.80;1.53;;;;;;;;;;5034944;28;20188;-73
2023/07/27 17:00:21;;;;;;;3.60;1.70;;;;;;;;;;5034161;28;20204;-73
2023/07/27 17:03:25;;;;;;;2.37;1.90;;;;;;;;;;5035037;28;20536;-74
2023/07/27 17:06:29;;;;;;;2.93;1.90;;;;;;;;;;5034995;28;20516;-73
2023/07/27 17:09:36;;;;;;;3.03;1.77;;;;;;;;;;5034761;28;20177;-73
2023/07/27 17:12:40;;;;;;;1.97;1.53;;;;;;;;;;5034069;28;20224;-74
2023/07/27 17:15:44;;;;;;;2.17;1.80;;;;;;;;;;5034610;28;20639;-73
2023/07/27 17:18:50;;;;;;;4.10;2.37;;;;;;;;;;5033693;28;20184;-74
2023/07/27 17:21:54;;;;;;;3.40;2.27;;;;;;;;;;5034408;28;20711;-73
2023/07/27 17:24:59;;;;;;;3.50;1.83;;;;;;;;;;5034350;28;20239;-73
2023/07/27 17:28:03;;;;;;;2.23;2.00;;;;;;;;;;5034359;28;20188;-74
2023/07/27 17:31:07;;;;;;;2.77;1.97;;;;;;;;;;5033608;28;20212;-73
2023/07/27 17:34:12;;;;;;;2.27;1.90;;;;;;;;;;5034228;28;20181;-74
2023/07/27 17:37:16;;;;;;;3.30;2.10;;;;;;;;;;5034510;28;20181;-73
2023/07/27 17:40:20;;;;;;;4.30;2.30;;;;;;;;;;5033512;28;20208;-73
2023/07/27 17:43:25;;;;;;;3.03;1.80;;;;;;;;;;5034277;28;20180;-73
2023/07/27 17:46:29;;;;;;;2.47;2.10;;;;;;;;;;5033976;28;20197;-73
2023/07/27 17:49:33;;;;;;;3.03;1.93;;;;;;;;;;5033072;28;20169;-73
2023/07/27 17:52:37;;;;;;;1.97;1.77;;;;;;;;;;5033167;28;20584;-73
2023/07/27 17:55:41;;;;;;;3.17;2.20;;;;;;;;;;5033634;28;20172;-74
2023/07/27 17:58:46;;;;;;;3.03;2.10;;;;;;;;;;5034074;28;20181;-73
2023/07/27 18:01:50;;;;;;;3.80;2.20;;;;;;;;;;5033645;28;20212;-73
2023/07/27 18:04:54;;;;;;;2.27;2.07;;;;;;;;;;5032863;28;20181;-73
2023/07/27 18:07:59;;;;;;;4.67;2.40;;;;;;;;;;5032792;28;20173;-72
2023/07/27 18:11:11;;;;;;;4.03;2.10;;;;;;;;;;5033480;28;20556;-74
2023/07/27 18:14:15;;;;;;;2.67;2.03;;;;;;;;;;5033430;28;20203;-73
2023/07/27 18:17:19;;;;;;;2.23;2.03;;;;;;;;;;5032283;28;20640;-74
2023/07/27 18:20:23;;;;;;;3.80;1.87;;;;;;;;;;5033197;28;20205;-74
2023/07/27 18:23:27;;;;;;;3.50;1.87;;;;;;;;;;5021176;28;20193;-74
2023/07/27 18:26:31;;;;;;;2.47;2.27;;;;;;;;;;5032766;28;20509;-74
2023/07/27 18:29:35;;;;;;;4.33;1.90;;;;;;;;;;5033533;28;20180;-74
2023/07/27 18:32:39;;;;;;;2.67;2.00;;;;;;;;;;5033313;28;20219;-74